Time;durP1;ratioP1;P1;durP2;ratioP2;P2;SDS_P1;SDS_P2;PMS_P1;PMS_P2;Temp;Humidity;BMP_temperature;BMP_pressure;BME280_temperature;BME280_humidity;BME280_pressure;Samples;Min_cycle;Max_cycle;Signal;HPM_P1;HPM_P2
2023/03/28 00:00:00;;;;;;;7.68;3.03;;;;;;;;;;5067885;28;20463;-60
2023/03/28 00:02:25;;;;;;;10.40;3.33;;;;;;;;;;5066358;28;20036;-60
2023/03/28 00:04:51;;;;;;;7.20;3.63;;;;;;;;;;5066909;28;20036;-60
2023/03/28 00:07:16;;;;;;;6.90;3.35;;;;;;;;;;5062629;28;20032;-60
2023/03/28 00:09:42;;;;;;;6.95;3.33;;;;;;;;;;5062979;28;20045;-60
2023/03/28 00:12:07;;;;;;;9.95;4.00;;;;;;;;;;5061957;28;20028;-60
2023/03/28 00:14:34;;;;;;;8.73;3.95;;;;;;;;;;5065024;28;20121;-60
2023/03/28 00:17:00;;;;;;;7.78;3.25;;;;;;;;;;5062879;28;20036;-61
2023/03/28 00:19:31;;;;;;;9.80;4.00;;;;;;;;;;5061987;28;20103;-60
2023/03/28 00:21:57;;;;;;;12.63;4.10;;;;;;;;;;5060188;28;20082;-60
2023/03/28 00:24:22;;;;;;;13.00;3.92;;;;;;;;;;5063291;28;20040;-60
2023/03/28 00:26:53;;;;;;;8.50;4.18;;;;;;;;;;5065355;28;20103;-60
2023/03/28 00:29:19;;;;;;;13.70;4.47;;;;;;;;;;5065546;28;20035;-60
2023/03/28 00:31:45;;;;;;;8.98;4.13;;;;;;;;;;5065161;28;20052;-60
2023/03/28 00:34:11;;;;;;;11.70;4.40;;;;;;;;;;5043049;28;20116;-60
2023/03/28 00:36:38;;;;;;;10.80;4.25;;;;;;;;;;5063953;28;20049;-60
2023/03/28 00:39:06;;;;;;;12.00;4.65;;;;;;;;;;5074714;28;20027;-60
2023/03/28 00:41:33;;;;;;;11.15;4.88;;;;;;;;;;5064729;28;20509;-60
2023/03/28 00:44:00;;;;;;;8.52;4.25;;;;;;;;;;5071357;28;20032;-60
2023/03/28 00:46:28;;;;;;;10.02;4.25;;;;;;;;;;5065268;28;20761;-60
2023/03/28 00:48:57;;;;;;;15.95;4.43;;;;;;;;;;5064580;28;20024;-60
2023/03/28 00:51:24;;;;;;;12.68;4.10;;;;;;;;;;5066413;28;20074;-60
2023/03/28 00:53:51;;;;;;;14.07;4.50;;;;;;;;;;5065045;28;20060;-60
2023/03/28 00:56:17;;;;;;;10.43;4.50;;;;;;;;;;5067691;28;20024;-61
2023/03/28 00:58:43;;;;;;;10.48;4.63;;;;;;;;;;5068044;28;20117;-60
2023/03/28 01:01:10;;;;;;;12.82;4.45;;;;;;;;;;5080056;28;20028;-60
2023/03/28 01:03:40;;;;;;;11.55;4.63;;;;;;;;;;5064478;28;20032;-60
2023/03/28 01:06:06;;;;;;;12.07;5.00;;;;;;;;;;5064806;28;20040;-60
2023/03/28 01:08:33;;;;;;;12.05;4.65;;;;;;;;;;5063854;28;20123;-61
2023/03/28 01:10:58;;;;;;;11.68;5.15;;;;;;;;;;5058482;28;20073;-60
2023/03/28 01:13:25;;;;;;;16.60;5.18;;;;;;;;;;5062996;28;20103;-60
2023/03/28 01:15:51;;;;;;;11.65;4.90;;;;;;;;;;5064347;28;20028;-60
2023/03/28 01:18:17;;;;;;;9.32;4.47;;;;;;;;;;5045113;28;20424;-60
2023/03/28 01:20:45;;;;;;;9.18;5.07;;;;;;;;;;5062948;28;20040;-60
2023/03/28 01:23:29;;;;;;;9.90;5.00;;;;;;;;;;5063968;28;20058;-60
2023/03/28 01:26:13;;;;;;;10.63;5.55;;;;;;;;;;5075129;28;20020;-60
2023/03/28 01:28:53;;;;;;;10.40;4.43;;;;;;;;;;5065563;28;20036;-60
2023/03/28 01:31:19;;;;;;;10.68;5.03;;;;;;;;;;5065069;28;20446;-60
2023/03/28 01:34:07;;;;;;;11.98;5.38;;;;;;;;;;5063934;28;20029;-60
2023/03/28 01:36:56;;;;;;;10.10;4.82;;;;;;;;;;5048736;28;20059;-60
2023/03/28 01:39:24;;;;;;;13.45;5.35;;;;;;;;;;5054505;28;20043;-60
2023/03/28 01:41:55;;;;;;;14.20;4.70;;;;;;;;;;5063740;28;20024;-60
2023/03/28 01:44:30;;;;;;;11.50;5.22;;;;;;;;;;5063701;28;20465;-60
2023/03/28 01:46:59;;;;;;;12.80;6.47;;;;;;;;;;5066520;28;20149;-60
2023/03/28 01:49:31;;;;;;;14.65;5.32;;;;;;;;;;5067832;28;20036;-60
2023/03/28 01:52:00;;;;;;;15.63;6.03;;;;;;;;;;5065103;28;20032;-60
2023/03/28 01:54:29;;;;;;;8.18;4.82;;;;;;;;;;5077195;28;20040;-60
2023/03/28 01:57:04;;;;;;;21.92;6.40;;;;;;;;;;5070831;28;20622;-61
2023/03/28 01:59:32;;;;;;;12.32;5.47;;;;;;;;;;5071368;28;20059;-61
2023/03/28 02:02:03;;;;;;;13.57;5.22;;;;;;;;;;5079393;28;20032;-60
2023/03/28 02:04:29;;;;;;;13.00;5.72;;;;;;;;;;5080369;28;20394;-60
2023/03/28 02:06:55;;;;;;;18.15;5.80;;;;;;;;;;5065160;28;20108;-60
2023/03/28 02:09:22;;;;;;;10.57;4.88;;;;;;;;;;5061455;28;20024;-61
2023/03/28 02:11:49;;;;;;;9.30;4.53;;;;;;;;;;5062081;28;20474;-62
2023/03/28 02:14:17;;;;;;;14.77;5.78;;;;;;;;;;5065771;28;20109;-61
2023/03/28 02:16:43;;;;;;;11.38;5.38;;;;;;;;;;5071954;28;20419;-60
2023/03/28 02:19:09;;;;;;;12.27;5.65;;;;;;;;;;5074315;28;20028;-61
2023/03/28 02:21:39;;;;;;;18.40;6.28;;;;;;;;;;5065527;28;20027;-60
2023/03/28 02:24:05;;;;;;;14.20;5.85;;;;;;;;;;5060564;28;20039;-61
2023/03/28 02:26:30;;;;;;;10.48;5.53;;;;;;;;;;5061187;28;20398;-61
2023/03/28 02:28:56;;;;;;;14.10;5.80;;;;;;;;;;5059056;28;20121;-60
2023/03/28 02:31:22;;;;;;;9.27;5.57;;;;;;;;;;5061966;28;20043;-60
2023/03/28 02:33:48;;;;;;;16.00;5.35;;;;;;;;;;5058859;28;20050;-60
2023/03/28 02:36:28;;;;;;;9.65;5.10;;;;;;;;;;5059624;28;20080;-61
2023/03/28 02:38:54;;;;;;;12.00;4.75;;;;;;;;;;5068016;28;20020;-60
2023/03/28 02:41:32;;;;;;;14.40;5.63;;;;;;;;;;5053304;28;20039;-60
2023/03/28 02:44:12;;;;;;;17.17;6.40;;;;;;;;;;5060703;28;20032;-60
2023/03/28 02:46:46;;;;;;;14.43;4.93;;;;;;;;;;5059866;28;20024;-60
2023/03/28 02:49:12;;;;;;;18.27;6.35;;;;;;;;;;5060750;28;20066;-61
2023/03/28 02:51:40;;;;;;;15.18;6.55;;;;;;;;;;5058937;28;20116;-60
2023/03/28 02:54:05;;;;;;;22.48;6.45;;;;;;;;;;5060981;28;20078;-60
2023/03/28 02:56:51;;;;;;;12.63;6.05;;;;;;;;;;5062986;28;20119;-60
2023/03/28 02:59:28;;;;;;;10.63;5.13;;;;;;;;;;5065467;28;20058;-60
2023/03/28 03:01:54;;;;;;;14.65;6.80;;;;;;;;;;5063204;28;20024;-60
2023/03/28 03:04:19;;;;;;;16.80;6.82;;;;;;;;;;5061794;28;20040;-60
2023/03/28 03:06:44;;;;;;;17.02;5.28;;;;;;;;;;5064706;28;20787;-60
2023/03/28 03:09:10;;;;;;;12.93;5.80;;;;;;;;;;5068081;28;20151;-60
2023/03/28 03:11:36;;;;;;;17.00;5.57;;;;;;;;;;5068247;28;20035;-60
2023/03/28 03:14:01;;;;;;;12.40;6.20;;;;;;;;;;5070626;28;20390;-60
2023/03/28 03:16:28;;;;;;;15.18;6.55;;;;;;;;;;5075611;28;20036;-60
2023/03/28 03:18:53;;;;;;;11.25;6.00;;;;;;;;;;5066286;28;20047;-60
2023/03/28 03:21:18;;;;;;;13.13;6.47;;;;;;;;;;5065524;28;20248;-60
2023/03/28 03:23:44;;;;;;;13.43;6.53;;;;;;;;;;5064579;28;20028;-60
2023/03/28 03:26:09;;;;;;;15.73;6.47;;;;;;;;;;5067997;28;20036;-60
2023/03/28 03:28:34;;;;;;;13.55;6.22;;;;;;;;;;5066933;28;20059;-61
2023/03/28 03:31:00;;;;;;;16.00;6.47;;;;;;;;;;5065980;28;20458;-61
2023/03/28 03:33:26;;;;;;;13.77;6.80;;;;;;;;;;5077150;28;20028;-62
2023/03/28 03:35:52;;;;;;;11.77;6.95;;;;;;;;;;5066832;28;20028;-60
2023/03/28 03:38:17;;;;;;;11.60;7.20;;;;;;;;;;5074267;28;20107;-60
2023/03/28 03:40:43;;;;;;;13.40;6.80;;;;;;;;;;5065615;28;20035;-60
2023/03/28 03:43:08;;;;;;;13.57;6.53;;;;;;;;;;5071951;28;20469;-60
2023/03/28 03:45:33;;;;;;;16.92;7.43;;;;;;;;;;5062544;28;20050;-61
2023/03/28 03:47:59;;;;;;;16.05;7.63;;;;;;;;;;5061546;28;20029;-63
2023/03/28 03:50:24;;;;;;;14.00;7.70;;;;;;;;;;5067526;28;20100;-62
2023/03/28 03:52:49;;;;;;;16.33;7.28;;;;;;;;;;5063593;28;20043;-60
2023/03/28 03:55:14;;;;;;;12.10;7.03;;;;;;;;;;5063430;28;20391;-61
2023/03/28 03:57:40;;;;;;;18.52;8.57;;;;;;;;;;5067322;28;20024;-60
2023/03/28 04:00:10;;;;;;;13.32;7.15;;;;;;;;;;5065757;28;20051;-60
2023/03/28 04:02:36;;;;;;;11.90;7.03;;;;;;;;;;5065729;28;20059;-60
2023/03/28 04:05:01;;;;;;;11.93;7.38;;;;;;;;;;5062805;28;20417;-60
2023/03/28 04:07:26;;;;;;;16.20;7.65;;;;;;;;;;5064421;28;20024;-61
2023/03/28 04:09:51;;;;;;;28.20;8.43;;;;;;;;;;5061737;28;20134;-61
2023/03/28 04:12:17;;;;;;;16.27;7.72;;;;;;;;;;5063979;28;20056;-61
2023/03/28 04:14:42;;;;;;;15.43;7.97;;;;;;;;;;5063532;28;20687;-60
2023/03/28 04:17:08;;;;;;;15.82;7.22;;;;;;;;;;5064480;28;20040;-60
2023/03/28 04:19:33;;;;;;;15.80;7.45;;;;;;;;;;5063477;28;20069;-61
2023/03/28 04:21:58;;;;;;;15.07;7.65;;;;;;;;;;5063989;28;20059;-61
2023/03/28 04:24:24;;;;;;;14.43;7.63;;;;;;;;;;5040578;28;20056;-61
2023/03/28 04:26:54;;;;;;;17.10;7.60;;;;;;;;;;5062038;28;20064;-60
2023/03/28 04:29:29;;;;;;;19.00;7.28;;;;;;;;;;5063155;28;20028;-61
2023/03/28 04:31:54;;;;;;;18.63;8.35;;;;;;;;;;5065825;28;20039;-60
2023/03/28 04:34:24;;;;;;;12.82;7.10;;;;;;;;;;5065395;28;20397;-60
2023/03/28 04:36:49;;;;;;;14.73;7.45;;;;;;;;;;5074862;28;20023;-60
2023/03/28 04:39:15;;;;;;;18.75;8.45;;;;;;;;;;5066158;28;20025;-60
2023/03/28 04:41:40;;;;;;;14.70;8.10;;;;;;;;;;5063126;28;20039;-60
2023/03/28 04:44:05;;;;;;;15.25;8.57;;;;;;;;;;5062990;28;20048;-63
2023/03/28 04:46:31;;;;;;;19.70;9.02;;;;;;;;;;5062408;28;20032;-61
2023/03/28 04:48:56;;;;;;;17.20;8.40;;;;;;;;;;5062118;28;20029;-61
2023/03/28 04:51:21;;;;;;;17.10;8.00;;;;;;;;;;5063485;28;20526;-60
2023/03/28 04:53:47;;;;;;;13.85;8.00;;;;;;;;;;5068496;28;20028;-62
2023/03/28 04:56:12;;;;;;;20.25;8.45;;;;;;;;;;5068228;28;20037;-61
2023/03/28 04:58:38;;;;;;;18.95;8.60;;;;;;;;;;5061842;28;20453;-62
2023/03/28 05:01:04;;;;;;;24.65;10.45;;;;;;;;;;5060574;28;20059;-61
2023/03/28 05:03:29;;;;;;;20.20;9.52;;;;;;;;;;5066949;28;20024;-62
2023/03/28 05:05:55;;;;;;;20.98;9.63;;;;;;;;;;5065717;28;20386;-61
2023/03/28 05:08:21;;;;;;;18.45;10.45;;;;;;;;;;5074557;28;20081;-62
2023/03/28 05:10:47;;;;;;;27.95;12.68;;;;;;;;;;5061556;28;20027;-60
2023/03/28 05:13:12;;;;;;;21.98;9.70;;;;;;;;;;5060874;28;20048;-62
2023/03/28 05:15:38;;;;;;;16.75;9.27;;;;;;;;;;5067215;28;20034;-62
2023/03/28 05:18:04;;;;;;;17.00;8.80;;;;;;;;;;5055879;28;20032;-60
2023/03/28 05:20:29;;;;;;;24.38;9.88;;;;;;;;;;5055774;28;20899;-63
2023/03/28 05:22:54;;;;;;;17.67;9.18;;;;;;;;;;5061071;28;20021;-62
2023/03/28 05:25:20;;;;;;;12.70;8.18;;;;;;;;;;5053952;28;20399;-60
2023/03/28 05:27:46;;;;;;;21.77;8.80;;;;;;;;;;5054289;28;20800;-60
2023/03/28 05:30:11;;;;;;;12.60;8.65;;;;;;;;;;5052765;28;20024;-61
2023/03/28 05:32:38;;;;;;;15.88;8.10;;;;;;;;;;5057125;28;20073;-62
2023/03/28 05:35:08;;;;;;;18.45;8.70;;;;;;;;;;5048292;28;20207;-60
2023/03/28 05:37:34;;;;;;;18.92;9.25;;;;;;;;;;5034681;28;20024;-62
2023/03/28 05:39:59;;;;;;;17.65;9.45;;;;;;;;;;5031132;28;20021;-60
2023/03/28 05:42:25;;;;;;;19.48;8.60;;;;;;;;;;5034279;28;20039;-60
2023/03/28 05:44:50;;;;;;;16.45;9.40;;;;;;;;;;5039121;28;20027;-60
2023/03/28 05:47:16;;;;;;;15.93;8.52;;;;;;;;;;5050912;28;20447;-61
2023/03/28 05:49:41;;;;;;;16.08;9.38;;;;;;;;;;5045480;28;20032;-61
2023/03/28 05:52:06;;;;;;;22.10;9.00;;;;;;;;;;5038667;28;20229;-60
2023/03/28 05:54:32;;;;;;;16.55;8.40;;;;;;;;;;5040120;28;20128;-63
2023/03/28 05:56:57;;;;;;;21.95;10.48;;;;;;;;;;5041958;28;20024;-60
2023/03/28 05:59:23;;;;;;;22.35;9.60;;;;;;;;;;5050556;28;20347;-60
2023/03/28 06:01:51;;;;;;;21.40;9.75;;;;;;;;;;5035196;28;20126;-60
2023/03/28 06:04:16;;;;;;;20.00;9.40;;;;;;;;;;5059685;28;20024;-60
2023/03/28 06:06:41;;;;;;;22.67;9.65;;;;;;;;;;5036308;28;20074;-60
2023/03/28 06:09:07;;;;;;;20.00;10.45;;;;;;;;;;5022689;28;20912;-60
2023/03/28 06:11:32;;;;;;;16.75;9.35;;;;;;;;;;5055867;28;20020;-61
2023/03/28 06:13:58;;;;;;;23.77;10.75;;;;;;;;;;5056889;28;20136;-60
2023/03/28 06:16:23;;;;;;;21.33;10.95;;;;;;;;;;5056726;28;20052;-60
2023/03/28 06:18:48;;;;;;;20.83;9.98;;;;;;;;;;5071945;28;20475;-60
2023/03/28 06:21:14;;;;;;;25.40;11.73;;;;;;;;;;5080414;28;20098;-60
2023/03/28 06:23:39;;;;;;;24.13;11.25;;;;;;;;;;5072141;28;20017;-62
2023/03/28 06:26:05;;;;;;;21.52;10.77;;;;;;;;;;5072431;28;20043;-61
2023/03/28 06:28:30;;;;;;;21.15;11.23;;;;;;;;;;5073077;28;20120;-61
2023/03/28 06:30:56;;;;;;;23.08;11.50;;;;;;;;;;5079124;28;20141;-60
2023/03/28 06:33:21;;;;;;;22.90;11.65;;;;;;;;;;5071599;28;20031;-61
2023/03/28 06:35:46;;;;;;;21.00;11.07;;;;;;;;;;5071239;28;20037;-61
2023/03/28 06:38:11;;;;;;;18.75;10.75;;;;;;;;;;5071629;28;20024;-60
2023/03/28 06:40:37;;;;;;;17.42;10.45;;;;;;;;;;5071539;28;20036;-60
2023/03/28 06:43:02;;;;;;;19.73;11.07;;;;;;;;;;5075199;28;20020;-60
2023/03/28 06:45:27;;;;;;;17.63;10.77;;;;;;;;;;5071745;28;20021;-60
2023/03/28 06:47:52;;;;;;;19.08;10.80;;;;;;;;;;5072013;28;20019;-61
2023/03/28 06:50:18;;;;;;;24.65;10.52;;;;;;;;;;5069971;28;20422;-60
2023/03/28 06:52:43;;;;;;;16.48;9.98;;;;;;;;;;5085747;28;20024;-61
2023/03/28 06:55:09;;;;;;;24.83;10.25;;;;;;;;;;5078969;28;20024;-60
2023/03/28 06:57:34;;;;;;;22.95;11.48;;;;;;;;;;5076886;28;20054;-61
2023/03/28 06:59:59;;;;;;;15.00;10.68;;;;;;;;;;5071075;28;20024;-61
2023/03/28 07:02:25;;;;;;;17.70;10.07;;;;;;;;;;5070924;28;20427;-60
2023/03/28 07:04:50;;;;;;;23.50;10.43;;;;;;;;;;5069853;28;20017;-60
2023/03/28 07:07:15;;;;;;;23.77;10.38;;;;;;;;;;5069305;28;20029;-61
2023/03/28 07:09:41;;;;;;;17.75;9.02;;;;;;;;;;5069747;28;20024;-61
2023/03/28 07:12:06;;;;;;;14.88;8.18;;;;;;;;;;5071050;28;20051;-60
2023/03/28 07:14:31;;;;;;;16.33;7.85;;;;;;;;;;5071438;28;20109;-61
2023/03/28 07:16:57;;;;;;;18.38;8.57;;;;;;;;;;5071402;28;20426;-61
2023/03/28 07:19:22;;;;;;;14.38;8.45;;;;;;;;;;5070941;28;20028;-60
2023/03/28 07:21:48;;;;;;;17.02;7.63;;;;;;;;;;5070522;28;20035;-60
2023/03/28 07:24:13;;;;;;;18.55;8.05;;;;;;;;;;5070843;28;20600;-60
2023/03/28 07:26:38;;;;;;;17.45;6.85;;;;;;;;;;5067450;28;20427;-61
2023/03/28 07:29:03;;;;;;;12.23;6.45;;;;;;;;;;5071196;28;20114;-60
2023/03/28 07:31:29;;;;;;;17.58;6.63;;;;;;;;;;5070720;28;20023;-60
2023/03/28 07:33:56;;;;;;;18.02;6.63;;;;;;;;;;5071116;28;20048;-61
2023/03/28 07:36:22;;;;;;;15.40;6.28;;;;;;;;;;5070727;28;20755;-60
2023/03/28 07:38:47;;;;;;;17.77;6.60;;;;;;;;;;5070974;28;20048;-61
2023/03/28 07:41:13;;;;;;;17.83;6.18;;;;;;;;;;5071031;28;20051;-61
2023/03/28 07:43:38;;;;;;;14.80;6.43;;;;;;;;;;5064232;28;20024;-60
2023/03/28 07:46:07;;;;;;;18.80;6.63;;;;;;;;;;5028241;28;20031;-60
2023/03/28 07:48:34;;;;;;;18.30;6.03;;;;;;;;;;5041309;28;20024;-60
2023/03/28 07:51:00;;;;;;;15.50;6.63;;;;;;;;;;5034195;28;20135;-60
2023/03/28 07:53:25;;;;;;;15.73;6.03;;;;;;;;;;5081629;28;20115;-61
2023/03/28 07:55:50;;;;;;;13.40;5.65;;;;;;;;;;5081799;28;20039;-61
2023/03/28 07:58:16;;;;;;;14.20;5.63;;;;;;;;;;5073459;28;20025;-61
2023/03/28 08:00:42;;;;;;;12.15;5.88;;;;;;;;;;5073664;28;20020;-60
2023/03/28 08:03:07;;;;;;;9.65;4.80;;;;;;;;;;5073182;28;20360;-60
2023/03/28 08:05:36;;;;;;;12.82;5.65;;;;;;;;;;5074723;28;20060;-61
2023/03/28 08:08:02;;;;;;;11.93;5.40;;;;;;;;;;5077562;28;20039;-63
2023/03/28 08:10:27;;;;;;;11.65;4.97;;;;;;;;;;5073827;28;20047;-60
2023/03/28 08:12:53;;;;;;;10.05;5.22;;;;;;;;;;5073393;28;20447;-61
2023/03/28 08:15:18;;;;;;;12.52;4.93;;;;;;;;;;5073889;28;20382;-61
2023/03/28 08:17:43;;;;;;;10.00;5.10;;;;;;;;;;5073750;28;20436;-60
2023/03/28 08:20:09;;;;;;;9.35;5.90;;;;;;;;;;5082194;28;20016;-61
2023/03/28 08:22:35;;;;;;;9.00;4.97;;;;;;;;;;5088480;28;20451;-61
2023/03/28 08:25:00;;;;;;;12.15;5.10;;;;;;;;;;5073284;28;20021;-61
2023/03/28 08:27:25;;;;;;;14.27;4.32;;;;;;;;;;5072820;28;20052;-61
2023/03/28 08:29:51;;;;;;;8.10;3.97;;;;;;;;;;5073212;28;20066;-60
2023/03/28 08:32:16;;;;;;;9.35;4.05;;;;;;;;;;5077438;28;20478;-60
2023/03/28 08:34:42;;;;;;;9.02;3.75;;;;;;;;;;5082593;28;20029;-60
2023/03/28 08:37:07;;;;;;;5.15;2.92;;;;;;;;;;5073534;28;20483;-61
2023/03/28 08:39:33;;;;;;;15.75;3.53;;;;;;;;;;5072298;28;20021;-60
2023/03/28 08:42:17;;;;;;;10.38;3.42;;;;;;;;;;5073224;28;20065;-60
2023/03/28 08:44:45;;;;;;;6.13;2.97;;;;;;;;;;5073482;28;20028;-60
2023/03/28 08:47:16;;;;;;;11.38;3.63;;;;;;;;;;5073245;28;20360;-61
2023/03/28 08:50:01;;;;;;;7.63;2.90;;;;;;;;;;5073378;28;20059;-61
2023/03/28 08:52:27;;;;;;;7.38;3.20;;;;;;;;;;5074782;28;20123;-62
2023/03/28 08:54:56;;;;;;;13.40;2.97;;;;;;;;;;5072043;28;20058;-61
2023/03/28 08:57:24;;;;;;;7.63;3.50;;;;;;;;;;5088823;28;20032;-61
2023/03/28 08:59:49;;;;;;;7.53;3.40;;;;;;;;;;5083700;28;20028;-61
2023/03/28 09:02:18;;;;;;;13.05;4.25;;;;;;;;;;5068251;28;20040;-62
2023/03/28 09:04:44;;;;;;;6.32;2.97;;;;;;;;;;5068619;28;20024;-61
2023/03/28 09:07:12;;;;;;;8.82;3.00;;;;;;;;;;5068132;28;20032;-62
2023/03/28 09:09:44;;;;;;;6.45;2.67;;;;;;;;;;5068539;28;20073;-62
2023/03/28 09:12:24;;;;;;;8.77;2.72;;;;;;;;;;5075868;28;20020;-62
2023/03/28 09:14:58;;;;;;;12.45;3.03;;;;;;;;;;5071537;28;20115;-61
2023/03/28 09:17:27;;;;;;;5.72;2.55;;;;;;;;;;5072187;28;20067;-61
2023/03/28 09:20:11;;;;;;;5.88;2.58;;;;;;;;;;5073258;28;20081;-61
2023/03/28 09:22:36;;;;;;;;;;;;;;;;;;5082227;28;20028;-61
2023/03/28 09:25:12;;;;;;;5.38;2.15;;;;;;;;;;5076269;28;19919;-61
2023/03/28 09:27:49;;;;;;;6.30;2.60;;;;;;;;;;5072489;28;20031;-61
2023/03/28 09:30:21;;;;;;;4.57;2.42;;;;;;;;;;5072245;28;20083;-61
2023/03/28 09:32:48;;;;;;;4.28;1.92;;;;;;;;;;5072540;28;20360;-61
2023/03/28 09:35:15;;;;;;;8.05;2.15;;;;;;;;;;5071973;28;20055;-61
2023/03/28 09:37:41;;;;;;;11.52;2.35;;;;;;;;;;5072008;28;20475;-61
2023/03/28 09:40:26;;;;;;;6.72;2.70;;;;;;;;;;5080550;28;20028;-61
2023/03/28 09:42:57;;;;;;;4.75;2.17;;;;;;;;;;5073638;28;20735;-61
2023/03/28 09:45:34;;;;;;;6.38;2.22;;;;;;;;;;5072376;28;20085;-61
2023/03/28 09:48:00;;;;;;;9.48;2.60;;;;;;;;;;5071879;28;20063;-61
2023/03/28 09:50:26;;;;;;;6.60;2.20;;;;;;;;;;5072267;28;20028;-61
2023/03/28 09:52:52;;;;;;;6.13;2.30;;;;;;;;;;5071462;28;20463;-61
2023/03/28 09:55:22;;;;;;;6.13;2.40;;;;;;;;;;5072352;28;20028;-61
2023/03/28 09:58:04;;;;;;;8.20;2.40;;;;;;;;;;5072575;28;20048;-61
2023/03/28 10:00:33;;;;;;;6.22;2.67;;;;;;;;;;5073125;28;20107;-61
2023/03/28 10:02:59;;;;;;;5.78;2.35;;;;;;;;;;5072410;28;20486;-61
2023/03/28 10:05:39;;;;;;;9.15;2.58;;;;;;;;;;5072522;28;20040;-61
2023/03/28 10:08:17;;;;;;;11.30;2.83;;;;;;;;;;5072432;28;20378;-61
2023/03/28 10:10:42;;;;;;;6.15;2.72;;;;;;;;;;5085204;28;20054;-61
2023/03/28 10:13:08;;;;;;;5.93;2.95;;;;;;;;;;5092249;28;20016;-61
2023/03/28 10:15:41;;;;;;;5.95;2.53;;;;;;;;;;5078425;28;20047;-61
2023/03/28 10:18:06;;;;;;;13.63;3.15;;;;;;;;;;5072322;28;20048;-61
2023/03/28 10:20:35;;;;;;;10.05;2.55;;;;;;;;;;5072208;28;20540;-61
2023/03/28 10:23:01;;;;;;;10.98;3.15;;;;;;;;;;5072280;28;20020;-61
2023/03/28 10:25:32;;;;;;;6.18;2.42;;;;;;;;;;5072008;28;20111;-62
2023/03/28 10:27:59;;;;;;;7.85;2.53;;;;;;;;;;5071732;28;20024;-61
2023/03/28 10:30:24;;;;;;;6.40;2.50;;;;;;;;;;5072063;28;20032;-61
2023/03/28 10:33:13;;;;;;;7.57;2.28;;;;;;;;;;5073689;28;20033;-61
2023/03/28 10:35:40;;;;;;;4.68;2.08;;;;;;;;;;5067351;28;20494;-61
2023/03/28 10:38:12;;;;;;;6.88;2.03;;;;;;;;;;5078711;28;20043;-61
2023/03/28 10:40:37;;;;;;;4.10;2.15;;;;;;;;;;5073648;28;20028;-61
2023/03/28 10:43:09;;;;;;;6.20;2.88;;;;;;;;;;5072593;28;20032;-61
2023/03/28 10:45:36;;;;;;;7.65;2.05;;;;;;;;;;5071794;28;20370;-61
2023/03/28 10:48:08;;;;;;;3.65;1.88;;;;;;;;;;5071892;28;20100;-61
2023/03/28 10:50:36;;;;;;;4.97;1.65;;;;;;;;;;5082343;28;20467;-61
2023/03/28 10:53:11;;;;;;;7.78;2.10;;;;;;;;;;5071285;28;20024;-61
2023/03/28 10:55:39;;;;;;;6.57;2.10;;;;;;;;;;5071943;28;20531;-62
2023/03/28 10:58:04;;;;;;;9.55;2.40;;;;;;;;;;5071661;28;20033;-61
2023/03/28 11:00:33;;;;;;;5.97;2.08;;;;;;;;;;5072022;28;20471;-61
2023/03/28 11:02:58;;;;;;;3.88;1.52;;;;;;;;;;5071197;28;20023;-61
2023/03/28 11:05:30;;;;;;;4.35;1.85;;;;;;;;;;5077038;28;20029;-61
2023/03/28 11:08:04;;;;;;;11.02;1.75;;;;;;;;;;5075194;28;20153;-61
2023/03/28 11:10:47;;;;;;;5.78;2.50;;;;;;;;;;5077389;28;20020;-61
2023/03/28 11:13:12;;;;;;;4.20;1.67;;;;;;;;;;5079147;28;20035;-61
2023/03/28 11:15:38;;;;;;;3.40;1.10;;;;;;;;;;5076709;28;20029;-61
2023/03/28 11:18:06;;;;;;;6.70;2.10;;;;;;;;;;5071405;28;20267;-61
2023/03/28 11:20:31;;;;;;;4.13;1.75;;;;;;;;;;5071683;28;20286;-61
2023/03/28 11:23:04;;;;;;;5.53;1.70;;;;;;;;;;5073135;28;20025;-61
2023/03/28 11:25:45;;;;;;;4.47;2.15;;;;;;;;;;5077416;28;20278;-61
2023/03/28 11:28:29;;;;;;;4.57;2.13;;;;;;;;;;5095127;28;20051;-62
2023/03/28 11:30:56;;;;;;;9.60;1.98;;;;;;;;;;5087781;28;20051;-61
2023/03/28 11:33:39;;;;;;;6.43;2.35;;;;;;;;;;5078915;28;20029;-61
2023/03/28 11:36:11;;;;;;;5.80;1.63;;;;;;;;;;5074939;28;20020;-61
2023/03/28 11:38:38;;;;;;;5.10;1.55;;;;;;;;;;5074579;28;20044;-61
2023/03/28 11:41:12;;;;;;;6.57;1.95;;;;;;;;;;5075017;28;20024;-61
2023/03/28 11:43:46;;;;;;;3.10;1.35;;;;;;;;;;5075327;28;20040;-61
2023/03/28 11:46:17;;;;;;;7.30;1.92;;;;;;;;;;5087660;28;20452;-61
2023/03/28 11:48:42;;;;;;;5.82;1.48;;;;;;;;;;5074829;28;20020;-61
2023/03/28 11:51:10;;;;;;;3.30;1.45;;;;;;;;;;5074462;28;20547;-62
2023/03/28 11:53:50;;;;;;;4.25;1.65;;;;;;;;;;5075813;28;20028;-61
2023/03/28 11:56:19;;;;;;;8.95;2.13;;;;;;;;;;5074288;28;20551;-61
2023/03/28 11:58:46;;;;;;;12.10;2.53;;;;;;;;;;5075209;28;20038;-61
2023/03/28 12:01:23;;;;;;;11.35;2.05;;;;;;;;;;5077249;28;20024;-61
2023/03/28 12:03:53;;;;;;;4.22;1.95;;;;;;;;;;5033786;28;20059;-62
2023/03/28 12:06:20;;;;;;;4.65;1.88;;;;;;;;;;5042419;28;20086;-61
2023/03/28 12:08:58;;;;;;;8.98;1.92;;;;;;;;;;5073731;28;20035;-62
2023/03/28 12:11:28;;;;;;;8.43;1.90;;;;;;;;;;5079981;28;20028;-61
2023/03/28 12:14:00;;;;;;;4.15;1.42;;;;;;;;;;5080786;28;20034;-62
2023/03/28 12:16:55;;;;;;;6.05;1.90;;;;;;;;;;5074263;28;20028;-61
2023/03/28 12:19:29;;;;;;;4.40;2.00;;;;;;;;;;5060811;28;20032;-61
2023/03/28 12:21:59;;;;;;;5.43;1.77;;;;;;;;;;5086828;28;20020;-61
2023/03/28 12:24:24;;;;;;;5.25;2.28;;;;;;;;;;5074193;28;20024;-62
2023/03/28 12:27:02;;;;;;;5.68;2.17;;;;;;;;;;5081260;28;20344;-61
2023/03/28 12:29:47;;;;;;;3.50;1.90;;;;;;;;;;5074308;28;20479;-63
2023/03/28 12:32:31;;;;;;;4.80;2.03;;;;;;;;;;5078436;28;20031;-61
2023/03/28 12:35:16;;;;;;;5.18;2.22;;;;;;;;;;5075324;28;20036;-62
2023/03/28 12:37:45;;;;;;;8.30;2.50;;;;;;;;;;5073838;28;20036;-61
2023/03/28 12:40:23;;;;;;;8.23;1.92;;;;;;;;;;5074208;28;20047;-61
2023/03/28 12:42:49;;;;;;;4.65;2.05;;;;;;;;;;5034867;28;20132;-61
2023/03/28 12:45:18;;;;;;;6.47;2.10;;;;;;;;;;5041061;28;20032;-61
2023/03/28 12:47:45;;;;;;;8.07;2.05;;;;;;;;;;5040434;28;20025;-61
2023/03/28 12:50:17;;;;;;;5.15;2.13;;;;;;;;;;5041764;28;20025;-61
2023/03/28 12:52:43;;;;;;;4.57;2.22;;;;;;;;;;5086851;28;20048;-61
2023/03/28 12:55:31;;;;;;;6.03;2.03;;;;;;;;;;5041858;28;20874;-61
2023/03/28 12:58:15;;;;;;;11.07;2.67;;;;;;;;;;5033780;28;20025;-61
2023/03/28 13:01:13;;;;;;;7.30;2.20;;;;;;;;;;5054523;28;20130;-62
2023/03/28 13:03:53;;;;;;;3.63;1.85;;;;;;;;;;4997300;28;20788;-63
2023/03/28 13:06:39;;;;;;;5.45;2.55;;;;;;;;;;5051749;28;20020;-61
2023/03/28 13:09:18;;;;;;;5.90;2.40;;;;;;;;;;5073922;28;20043;-62
2023/03/28 13:11:51;;;;;;;7.72;2.25;;;;;;;;;;5079922;28;20035;-62
2023/03/28 13:14:36;;;;;;;10.80;2.75;;;;;;;;;;5076469;28;20025;-62
2023/03/28 13:17:14;;;;;;;7.07;2.30;;;;;;;;;;5082139;28;20020;-62
2023/03/28 13:19:42;;;;;;;4.72;2.33;;;;;;;;;;5073074;28;20104;-62
2023/03/28 13:22:26;;;;;;;7.47;2.40;;;;;;;;;;5082338;28;20036;-62
2023/03/28 13:24:51;;;;;;;6.17;1.87;;;;;;;;;;5073138;28;20028;-62
2023/03/28 13:27:29;;;;;;;6.28;2.20;;;;;;;;;;5079496;28;20024;-62
2023/03/28 13:30:04;;;;;;;6.18;2.35;;;;;;;;;;5072951;28;20073;-62
2023/03/28 13:32:34;;;;;;;3.92;2.00;;;;;;;;;;5084527;28;20031;-62
2023/03/28 13:35:04;;;;;;;3.67;1.80;;;;;;;;;;5078510;28;20083;-62
2023/03/28 13:37:41;;;;;;;4.28;1.95;;;;;;;;;;5075637;28;20036;-62
2023/03/28 13:40:26;;;;;;;6.00;1.70;;;;;;;;;;5072658;28;20024;-61
2023/03/28 13:42:56;;;;;;;3.92;1.30;;;;;;;;;;5082810;28;20020;-62
2023/03/28 13:45:22;;;;;;;4.93;1.70;;;;;;;;;;5072795;28;20094;-62
2023/03/28 13:47:48;;;;;;;5.25;2.35;;;;;;;;;;5073645;28;20069;-62
2023/03/28 13:50:25;;;;;;;4.38;2.08;;;;;;;;;;5071113;28;20951;-62
2023/03/28 13:52:50;;;;;;;3.72;2.03;;;;;;;;;;5029822;28;20020;-61
2023/03/28 13:55:23;;;;;;;5.13;2.20;;;;;;;;;;5041127;28;20138;-61
2023/03/28 13:57:49;;;;;;;5.72;2.13;;;;;;;;;;5045008;28;20954;-61
2023/03/28 14:00:16;;;;;;;12.05;2.42;;;;;;;;;;5044671;28;20024;-61
2023/03/28 14:02:44;;;;;;;9.65;2.47;;;;;;;;;;5072995;28;20382;-62
2023/03/28 14:05:09;;;;;;;5.63;2.38;;;;;;;;;;5072523;28;20031;-62
2023/03/28 14:07:35;;;;;;;5.68;2.28;;;;;;;;;;5082616;28;20036;-60
2023/03/28 14:10:00;;;;;;;9.13;2.10;;;;;;;;;;5072713;28;20071;-60
2023/03/28 14:12:27;;;;;;;5.88;2.17;;;;;;;;;;5081028;28;20024;-62
2023/03/28 14:14:53;;;;;;;4.38;2.13;;;;;;;;;;5072179;28;20040;-61
2023/03/28 14:17:21;;;;;;;4.28;1.98;;;;;;;;;;5077045;28;20036;-59
2023/03/28 14:19:49;;;;;;;4.97;2.28;;;;;;;;;;5072444;28;20021;-60
2023/03/28 14:22:16;;;;;;;6.85;2.38;;;;;;;;;;5072309;28;20025;-61
2023/03/28 14:24:42;;;;;;;6.20;1.63;;;;;;;;;;5072543;28;20102;-60
2023/03/28 14:27:09;;;;;;;4.78;2.17;;;;;;;;;;5072691;28;20471;-62
2023/03/28 14:29:34;;;;;;;4.10;1.75;;;;;;;;;;5072148;28;20020;-60
2023/03/28 14:32:00;;;;;;;5.88;2.20;;;;;;;;;;5072002;28;20082;-61
2023/03/28 14:34:31;;;;;;;3.88;2.30;;;;;;;;;;5071870;28;20029;-63
2023/03/28 14:37:00;;;;;;;8.05;2.60;;;;;;;;;;5072487;28;20062;-63
2023/03/28 14:39:27;;;;;;;5.18;2.13;;;;;;;;;;5071945;28;20036;-64
2023/03/28 14:41:53;;;;;;;7.55;2.30;;;;;;;;;;5072088;28;20479;-62
2023/03/28 14:44:19;;;;;;;6.75;2.03;;;;;;;;;;5077490;28;20103;-64